sensor_id;sensor_type;location;lat;lon;timestamp;pressure;altitude;pressure_sealevel;temperature;humidity
16793;BME280;8513;42.662;23.350;2022-11-20T00:01:42;94216.66;;;14.41;64.74
16793;BME280;8513;42.662;23.350;2022-11-20T00:04:09;94239.72;;;14.26;66.39
16793;BME280;8513;42.662;23.350;2022-11-20T00:06:35;94230.13;;;14.18;68.03
16793;BME280;8513;42.662;23.350;2022-11-20T00:09:01;94243.06;;;14.06;69.14
16793;BME280;8513;42.662;23.350;2022-11-20T00:11:28;94217.19;;;14.02;69.78
16793;BME280;8513;42.662;23.350;2022-11-20T00:13:56;94240.19;;;14.01;70.09
16793;BME280;8513;42.662;23.350;2022-11-20T00:16:26;94206.88;;;14.07;70.16
16793;BME280;8513;42.662;23.350;2022-11-20T00:18:52;94221.50;;;14.38;65.46
16793;BME280;8513;42.662;23.350;2022-11-20T00:21:20;94210.91;;;14.66;62.34
16793;BME280;8513;42.662;23.350;2022-11-20T00:23:46;94231.22;;;14.59;64.49
16793;BME280;8513;42.662;23.350;2022-11-20T00:26:16;94188.16;;;14.43;66.89
16793;BME280;8513;42.662;23.350;2022-11-20T00:28:42;94197.75;;;14.44;66.12
16793;BME280;8513;42.662;23.350;2022-11-20T00:31:13;94174.34;;;14.41;65.94
16793;BME280;8513;42.662;23.350;2022-11-20T00:33:40;94212.41;;;14.47;65.98
16793;BME280;8513;42.662;23.350;2022-11-20T00:36:14;94202.63;;;14.47;65.36
16793;BME280;8513;42.662;23.350;2022-11-20T00:38:40;94183.06;;;14.42;66.05
16793;BME280;8513;42.662;23.350;2022-11-20T00:41:08;94208.31;;;14.44;65.93
16793;BME280;8513;42.662;23.350;2022-11-20T00:43:34;94188.16;;;14.43;64.84
16793;BME280;8513;42.662;23.350;2022-11-20T00:46:05;94194.69;;;14.47;64.45
16793;BME280;8513;42.662;23.350;2022-11-20T00:48:31;94211.97;;;14.43;65.03
16793;BME280;8513;42.662;23.350;2022-11-20T00:50:57;94205.03;;;14.42;65.29
16793;BME280;8513;42.662;23.350;2022-11-20T00:53:23;94203.44;;;14.48;64.49
16793;BME280;8513;42.662;23.350;2022-11-20T00:55:59;94196.84;;;14.65;62.54
16793;BME280;8513;42.662;23.350;2022-11-20T00:58:30;94208.72;;;14.76;61.66
16793;BME280;8513;42.662;23.350;2022-11-20T01:01:07;94185.75;;;14.96;58.71
16793;BME280;8513;42.662;23.350;2022-11-20T01:03:38;94207.78;;;15.04;59.73
16793;BME280;8513;42.662;23.350;2022-11-20T01:06:07;94191.69;;;14.98;60.14
16793;BME280;8513;42.662;23.350;2022-11-20T01:08:34;94208.63;;;15.17;58.52
16793;BME280;8513;42.662;23.350;2022-11-20T01:11:06;94202.97;;;15.34;57.20
16793;BME280;8513;42.662;23.350;2022-11-20T01:13:33;94188.31;;;15.44;55.82
16793;BME280;8513;42.662;23.350;2022-11-20T01:16:18;94176.91;;;15.57;54.91
16793;BME280;8513;42.662;23.350;2022-11-20T01:18:46;94167.16;;;15.71;53.97
16793;BME280;8513;42.662;23.350;2022-11-20T01:21:15;94159.22;;;15.84;53.97
16793;BME280;8513;42.662;23.350;2022-11-20T01:23:42;94175.75;;;15.86;54.32
16793;BME280;8513;42.662;23.350;2022-11-20T01:26:12;94156.16;;;15.87;53.87
16793;BME280;8513;42.662;23.350;2022-11-20T01:28:39;94179.00;;;15.88;54.15
16793;BME280;8513;42.662;23.350;2022-11-20T01:31:12;94177.56;;;15.86;53.90
16793;BME280;8513;42.662;23.350;2022-11-20T01:33:39;94177.34;;;15.87;53.76
16793;BME280;8513;42.662;23.350;2022-11-20T01:36:06;94158.00;;;15.80;54.61
16793;BME280;8513;42.662;23.350;2022-11-20T01:38:32;94164.53;;;15.71;55.17
16793;BME280;8513;42.662;23.350;2022-11-20T01:40:58;94150.03;;;15.74;55.31
16793;BME280;8513;42.662;23.350;2022-11-20T01:43:24;94164.72;;;15.76;54.62
16793;BME280;8513;42.662;23.350;2022-11-20T01:48:33;94155.53;;;15.79;54.47
16793;BME280;8513;42.662;23.350;2022-11-20T01:51:02;94143.72;;;15.95;53.27
16793;BME280;8513;42.662;23.350;2022-11-20T01:53:32;94155.75;;;15.91;53.88
16793;BME280;8513;42.662;23.350;2022-11-20T01:56:01;94122.72;;;15.93;53.13
16793;BME280;8513;42.662;23.350;2022-11-20T01:58:32;94121.91;;;15.79;55.11
16793;BME280;8513;42.662;23.350;2022-11-20T02:00:59;94151.66;;;15.68;55.79
16793;BME280;8513;42.662;23.350;2022-11-20T02:03:25;94155.97;;;15.69;54.97
16793;BME280;8513;42.662;23.350;2022-11-20T02:08:21;94169.22;;;15.82;55.00
16793;BME280;8513;42.662;23.350;2022-11-20T02:10:48;94146.78;;;15.78;54.71
16793;BME280;8513;42.662;23.350;2022-11-20T02:13:13;94169.59;;;15.66;56.18
16793;BME280;8513;42.662;23.350;2022-11-20T02:15:58;94164.28;;;15.66;56.47
16793;BME280;8513;42.662;23.350;2022-11-20T02:18:23;94182.06;;;15.72;56.36
16793;BME280;8513;42.662;23.350;2022-11-20T02:21:04;94153.09;;;15.64;56.92
16793;BME280;8513;42.662;23.350;2022-11-20T02:23:41;94164.69;;;15.50;56.97
16793;BME280;8513;42.662;23.350;2022-11-20T02:26:10;94157.53;;;15.50;56.71
16793;BME280;8513;42.662;23.350;2022-11-20T02:28:37;94168.78;;;15.59;55.93
16793;BME280;8513;42.662;23.350;2022-11-20T02:31:03;94141.50;;;15.78;54.30
16793;BME280;8513;42.662;23.350;2022-11-20T02:33:28;94156.56;;;15.71;54.78
16793;BME280;8513;42.662;23.350;2022-11-20T02:35:54;94146.19;;;15.83;53.63
16793;BME280;8513;42.662;23.350;2022-11-20T02:38:19;94156.75;;;16.09;52.00
16793;BME280;8513;42.662;23.350;2022-11-20T02:40:45;94179.38;;;16.05;52.21
16793;BME280;8513;42.662;23.350;2022-11-20T02:43:10;94152.03;;;16.12;52.18
16793;BME280;8513;42.662;23.350;2022-11-20T02:45:36;94165.09;;;16.13;52.12
16793;BME280;8513;42.662;23.350;2022-11-20T02:48:01;94173.06;;;16.13;52.33
16793;BME280;8513;42.662;23.350;2022-11-20T02:50:27;94183.03;;;16.24;52.09
16793;BME280;8513;42.662;23.350;2022-11-20T02:52:52;94177.13;;;16.22;52.67
16793;BME280;8513;42.662;23.350;2022-11-20T02:55:18;94183.47;;;16.28;52.70
16793;BME280;8513;42.662;23.350;2022-11-20T02:57:43;94180.53;;;16.43;52.25
16793;BME280;8513;42.662;23.350;2022-11-20T03:00:09;94170.75;;;16.43;52.79
16793;BME280;8513;42.662;23.350;2022-11-20T03:02:34;94161.97;;;16.49;52.76
16793;BME280;8513;42.662;23.350;2022-11-20T03:05:00;94187.91;;;16.41;52.92
16793;BME280;8513;42.662;23.350;2022-11-20T03:07:26;94211.78;;;16.47;52.84
16793;BME280;8513;42.662;23.350;2022-11-20T03:09:51;94218.09;;;16.53;52.78
16793;BME280;8513;42.662;23.350;2022-11-20T03:12:16;94198.47;;;16.54;52.90
16793;BME280;8513;42.662;23.350;2022-11-20T03:14:42;94192.00;;;16.37;53.03
16793;BME280;8513;42.662;23.350;2022-11-20T03:17:07;94192.00;;;16.30;53.42
16793;BME280;8513;42.662;23.350;2022-11-20T03:19:34;94194.81;;;16.55;52.75
16793;BME280;8513;42.662;23.350;2022-11-20T03:21:59;94218.09;;;16.53;52.72
16793;BME280;8513;42.662;23.350;2022-11-20T03:24:25;94221.19;;;16.37;53.44
16793;BME280;8513;42.662;23.350;2022-11-20T03:26:50;94213.53;;;16.73;52.29
16793;BME280;8513;42.662;23.350;2022-11-20T03:29:16;94215.66;;;16.45;53.15
16793;BME280;8513;42.662;23.350;2022-11-20T03:31:41;94208.91;;;16.42;53.02
16793;BME280;8513;42.662;23.350;2022-11-20T03:34:08;94218.50;;;16.50;52.82
16793;BME280;8513;42.662;23.350;2022-11-20T03:36:34;94212.59;;;16.48;52.72
16793;BME280;8513;42.662;23.350;2022-11-20T03:38:59;94213.41;;;16.55;52.50
16793;BME280;8513;42.662;23.350;2022-11-20T03:41:30;94213.00;;;16.45;53.21
16793;BME280;8513;42.662;23.350;2022-11-20T03:43:58;94227.06;;;16.59;52.46
16793;BME280;8513;42.662;23.350;2022-11-20T03:46:25;94219.47;;;16.62;52.39
16793;BME280;8513;42.662;23.350;2022-11-20T03:48:51;94233.59;;;16.63;52.20
16793;BME280;8513;42.662;23.350;2022-11-20T03:51:18;94220.31;;;16.56;52.38
16793;BME280;8513;42.662;23.350;2022-11-20T03:53:46;94215.25;;;16.54;52.50
16793;BME280;8513;42.662;23.350;2022-11-20T03:56:14;94210.09;;;16.66;52.20
16793;BME280;8513;42.662;23.350;2022-11-20T03:58:40;94218.91;;;16.60;52.27
16793;BME280;8513;42.662;23.350;2022-11-20T04:01:15;94226.44;;;16.63;52.38
16793;BME280;8513;42.662;23.350;2022-11-20T04:03:42;94200.91;;;16.62;52.17
16793;BME280;8513;42.662;23.350;2022-11-20T04:06:13;94224.38;;;16.72;51.55
16793;BME280;8513;42.662;23.350;2022-11-20T04:08:39;94223.97;;;16.62;52.12
16793;BME280;8513;42.662;23.350;2022-11-20T04:11:18;94227.47;;;16.49;52.45
16793;BME280;8513;42.662;23.350;2022-11-20T04:13:50;94223.56;;;16.71;51.25
16793;BME280;8513;42.662;23.350;2022-11-20T04:16:16;94224.56;;;16.70;51.12
16793;BME280;8513;42.662;23.350;2022-11-20T04:18:43;94217.44;;;16.64;51.36
16793;BME280;8513;42.662;23.350;2022-11-20T04:21:09;94250.31;;;16.63;51.46
16793;BME280;8513;42.662;23.350;2022-11-20T04:23:34;94235.81;;;16.59;51.55
16793;BME280;8513;42.662;23.350;2022-11-20T04:26:02;94224.41;;;16.59;51.68
16793;BME280;8513;42.662;23.350;2022-11-20T04:28:28;94258.09;;;16.58;51.75
16793;BME280;8513;42.662;23.350;2022-11-20T04:30:53;94246.84;;;16.69;51.55
16793;BME280;8513;42.662;23.350;2022-11-20T04:33:19;94248.47;;;16.57;51.80
16793;BME280;8513;42.662;23.350;2022-11-20T04:35:47;94239.94;;;16.55;52.18
16793;BME280;8513;42.662;23.350;2022-11-20T04:38:13;94246.44;;;16.59;52.53
16793;BME280;8513;42.662;23.350;2022-11-20T04:40:39;94252.41;;;16.54;52.69
16793;BME280;8513;42.662;23.350;2022-11-20T04:43:04;94241.94;;;16.60;52.47
16793;BME280;8513;42.662;23.350;2022-11-20T04:45:29;94232.16;;;16.53;52.93
16793;BME280;8513;42.662;23.350;2022-11-20T04:47:55;94220.75;;;16.53;52.70
16793;BME280;8513;42.662;23.350;2022-11-20T04:50:20;94219.31;;;16.44;52.88
16793;BME280;8513;42.662;23.350;2022-11-20T04:52:46;94234.81;;;16.53;52.63
16793;BME280;8513;42.662;23.350;2022-11-20T04:55:11;94239.28;;;16.60;52.41
16793;BME280;8513;42.662;23.350;2022-11-20T04:57:36;94230.97;;;16.49;52.94
16793;BME280;8513;42.662;23.350;2022-11-20T05:00:03;94225.00;;;16.54;52.31
16793;BME280;8513;42.662;23.350;2022-11-20T05:02:30;94209.72;;;16.49;52.68
16793;BME280;8513;42.662;23.350;2022-11-20T05:04:56;94208.69;;;16.44;53.30
16793;BME280;8513;42.662;23.350;2022-11-20T05:07:21;94209.34;;;16.39;52.84
16793;BME280;8513;42.662;23.350;2022-11-20T05:09:47;94214.44;;;16.47;52.83
16793;BME280;8513;42.662;23.350;2022-11-20T05:12:12;94216.47;;;16.45;52.61
16793;BME280;8513;42.662;23.350;2022-11-20T05:14:38;94203.03;;;16.34;52.95
16793;BME280;8513;42.662;23.350;2022-11-20T05:17:03;94201.81;;;16.36;53.57
16793;BME280;8513;42.662;23.350;2022-11-20T05:19:28;94199.72;;;16.38;53.69
16793;BME280;8513;42.662;23.350;2022-11-20T05:21:54;94199.75;;;16.31;54.43
16793;BME280;8513;42.662;23.350;2022-11-20T05:24:19;94194.47;;;16.31;54.23
16793;BME280;8513;42.662;23.350;2022-11-20T05:26:45;94187.31;;;16.39;53.97
16793;BME280;8513;42.662;23.350;2022-11-20T05:29:11;94164.88;;;16.21;55.00
16793;BME280;8513;42.662;23.350;2022-11-20T05:31:39;94178.53;;;16.25;55.73
16793;BME280;8513;42.662;23.350;2022-11-20T05:34:05;94176.94;;;16.17;55.93
16793;BME280;8513;42.662;23.350;2022-11-20T05:36:30;94186.31;;;16.26;55.26
16793;BME280;8513;42.662;23.350;2022-11-20T05:38:56;94195.28;;;16.25;55.51
16793;BME280;8513;42.662;23.350;2022-11-20T05:41:21;94199.56;;;16.20;56.27
16793;BME280;8513;42.662;23.350;2022-11-20T05:43:48;94203.47;;;16.04;58.30
16793;BME280;8513;42.662;23.350;2022-11-20T05:46:15;94213.88;;;16.05;58.38
16793;BME280;8513;42.662;23.350;2022-11-20T05:48:42;94201.19;;;16.27;55.48
16793;BME280;8513;42.662;23.350;2022-11-20T05:51:10;94195.09;;;16.14;56.75
16793;BME280;8513;42.662;23.350;2022-11-20T05:54:01;94190.41;;;16.16;56.51
16793;BME280;8513;42.662;23.350;2022-11-20T05:56:26;94192.03;;;16.23;57.06
16793;BME280;8513;42.662;23.350;2022-11-20T05:58:51;94205.50;;;16.08;58.07
16793;BME280;8513;42.662;23.350;2022-11-20T06:01:19;94206.31;;;16.02;59.19
16793;BME280;8513;42.662;23.350;2022-11-20T06:03:45;94216.75;;;15.91;60.12
16793;BME280;8513;42.662;23.350;2022-11-20T06:06:13;94204.91;;;15.86;60.66
16793;BME280;8513;42.662;23.350;2022-11-20T06:08:39;94219.19;;;15.85;60.70
16793;BME280;8513;42.662;23.350;2022-11-20T06:11:07;94216.31;;;16.00;60.43
16793;BME280;8513;42.662;23.350;2022-11-20T06:13:33;94225.09;;;16.07;59.93
16793;BME280;8513;42.662;23.350;2022-11-20T06:15:58;94207.13;;;16.16;57.55
16793;BME280;8513;42.662;23.350;2022-11-20T06:18:26;94213.66;;;16.20;58.54
16793;BME280;8513;42.662;23.350;2022-11-20T06:21:08;94216.28;;;16.27;58.22
16793;BME280;8513;42.662;23.350;2022-11-20T06:23:35;94214.88;;;16.24;58.57
16793;BME280;8513;42.662;23.350;2022-11-20T06:26:05;94218.09;;;16.33;58.32
16793;BME280;8513;42.662;23.350;2022-11-20T06:28:31;94230.78;;;16.24;58.82
16793;BME280;8513;42.662;23.350;2022-11-20T06:30:57;94240.97;;;16.27;58.61
16793;BME280;8513;42.662;23.350;2022-11-20T06:33:22;94237.09;;;16.37;58.61
16793;BME280;8513;42.662;23.350;2022-11-20T06:35:48;94225.47;;;16.38;59.18
16793;BME280;8513;42.662;23.350;2022-11-20T06:38:13;94219.72;;;16.41;58.79
16793;BME280;8513;42.662;23.350;2022-11-20T06:40:42;94227.06;;;16.45;58.48
16793;BME280;8513;42.662;23.350;2022-11-20T06:43:09;94232.78;;;16.49;58.75
16793;BME280;8513;42.662;23.350;2022-11-20T06:45:34;94245.00;;;16.63;58.26
16793;BME280;8513;42.662;23.350;2022-11-20T06:48:00;94224.97;;;16.74;57.12
16793;BME280;8513;42.662;23.350;2022-11-20T06:50:25;94229.66;;;16.85;56.46
16793;BME280;8513;42.662;23.350;2022-11-20T06:52:51;94239.66;;;16.76;56.91
16793;BME280;8513;42.662;23.350;2022-11-20T06:55:16;94249.91;;;16.80;56.87
16793;BME280;8513;42.662;23.350;2022-11-20T06:57:42;94232.75;;;16.82;56.74
16793;BME280;8513;42.662;23.350;2022-11-20T07:00:07;94241.09;;;16.72;57.65
16793;BME280;8513;42.662;23.350;2022-11-20T07:02:33;94256.84;;;16.67;57.92
16793;BME280;8513;42.662;23.350;2022-11-20T07:04:58;94258.06;;;16.78;57.57
16793;BME280;8513;42.662;23.350;2022-11-20T07:07:24;94256.25;;;16.65;58.45
16793;BME280;8513;42.662;23.350;2022-11-20T07:09:49;94253.19;;;16.68;57.98
16793;BME280;8513;42.662;23.350;2022-11-20T07:12:15;94254.78;;;16.76;54.13
16793;BME280;8513;42.662;23.350;2022-11-20T07:14:40;94252.31;;;16.88;53.77
16793;BME280;8513;42.662;23.350;2022-11-20T07:17:05;94239.25;;;16.93;54.21
16793;BME280;8513;42.662;23.350;2022-11-20T07:19:31;94267.84;;;16.91;52.94
16793;BME280;8513;42.662;23.350;2022-11-20T07:21:56;94261.72;;;16.90;52.79
16793;BME280;8513;42.662;23.350;2022-11-20T07:24:22;94250.72;;;16.73;54.45
16793;BME280;8513;42.662;23.350;2022-11-20T07:26:47;94270.31;;;16.72;55.13
16793;BME280;8513;42.662;23.350;2022-11-20T07:29:14;94260.72;;;16.71;55.80
16793;BME280;8513;42.662;23.350;2022-11-20T07:31:40;94270.31;;;16.72;56.04
16793;BME280;8513;42.662;23.350;2022-11-20T07:34:05;94258.69;;;16.67;56.40
16793;BME280;8513;42.662;23.350;2022-11-20T07:36:31;94262.34;;;16.72;55.75
16793;BME280;8513;42.662;23.350;2022-11-20T07:38:56;94260.06;;;16.96;54.48
16793;BME280;8513;42.662;23.350;2022-11-20T07:41:22;94256.19;;;16.92;54.38
16793;BME280;8513;42.662;23.350;2022-11-20T07:43:47;94260.50;;;16.86;54.88
16793;BME280;8513;42.662;23.350;2022-11-20T07:46:12;94252.53;;;16.93;54.34
16793;BME280;8513;42.662;23.350;2022-11-20T07:48:38;94260.91;;;16.83;54.10
16793;BME280;8513;42.662;23.350;2022-11-20T07:51:03;94269.50;;;16.85;55.03
16793;BME280;8513;42.662;23.350;2022-11-20T07:53:28;94241.66;;;16.94;53.97
16793;BME280;8513;42.662;23.350;2022-11-20T07:55:54;94258.69;;;16.87;54.49
16793;BME280;8513;42.662;23.350;2022-11-20T07:58:20;94263.38;;;16.85;54.84
16793;BME280;8513;42.662;23.350;2022-11-20T08:00:45;94258.25;;;16.90;54.47
16793;BME280;8513;42.662;23.350;2022-11-20T08:03:11;94273.97;;;16.91;54.99
16793;BME280;8513;42.662;23.350;2022-11-20T08:05:37;94274.72;;;17.05;54.89
16793;BME280;8513;42.662;23.350;2022-11-20T08:08:02;94252.59;;;17.25;53.89
16793;BME280;8513;42.662;23.350;2022-11-20T08:10:28;94246.06;;;17.20;54.35
16793;BME280;8513;42.662;23.350;2022-11-20T08:12:53;94250.16;;;17.23;54.21
16793;BME280;8513;42.662;23.350;2022-11-20T08:15:39;94246.63;;;17.29;54.05
16793;BME280;8513;42.662;23.350;2022-11-20T08:18:10;94237.03;;;17.35;53.86
16793;BME280;8513;42.662;23.350;2022-11-20T08:20:38;94240.91;;;17.64;52.77
16793;BME280;8513;42.662;23.350;2022-11-20T08:23:05;94253.38;;;17.70;52.04
16793;BME280;8513;42.662;23.350;2022-11-20T08:25:32;94252.31;;;17.78;51.65
16793;BME280;8513;42.662;23.350;2022-11-20T08:27:59;94262.59;;;17.68;51.95
16793;BME280;8513;42.662;23.350;2022-11-20T08:30:25;94277.13;;;17.65;52.07
16793;BME280;8513;42.662;23.350;2022-11-20T08:32:50;94274.84;;;17.69;52.80
16793;BME280;8513;42.662;23.350;2022-11-20T08:35:16;94264.66;;;17.66;52.41
16793;BME280;8513;42.662;23.350;2022-11-20T08:37:41;94263.19;;;17.70;51.80
16793;BME280;8513;42.662;23.350;2022-11-20T08:40:10;94263.75;;;17.78;51.41
16793;BME280;8513;42.662;23.350;2022-11-20T08:42:36;94272.78;;;17.71;51.18
16793;BME280;8513;42.662;23.350;2022-11-20T08:45:02;94281.34;;;17.79;51.07
16793;BME280;8513;42.662;23.350;2022-11-20T08:47:28;94281.97;;;17.75;51.53
16793;BME280;8513;42.662;23.350;2022-11-20T08:49:53;94297.88;;;17.88;51.43
16793;BME280;8513;42.662;23.350;2022-11-20T08:52:19;94319.38;;;17.87;52.19
16793;BME280;8513;42.662;23.350;2022-11-20T08:54:44;94317.75;;;17.85;53.04
16793;BME280;8513;42.662;23.350;2022-11-20T08:57:09;94313.28;;;17.79;52.81
16793;BME280;8513;42.662;23.350;2022-11-20T08:59:35;94295.25;;;17.75;53.22
16793;BME280;8513;42.662;23.350;2022-11-20T09:02:00;94301.38;;;17.82;53.61
16793;BME280;8513;42.662;23.350;2022-11-20T09:04:26;94288.53;;;17.79;55.00
16793;BME280;8513;42.662;23.350;2022-11-20T09:06:51;94307.25;;;17.97;53.44
16793;BME280;8513;42.662;23.350;2022-11-20T09:09:17;94315.50;;;17.82;54.68
16793;BME280;8513;42.662;23.350;2022-11-20T09:11:44;94308.41;;;17.63;55.72
16793;BME280;8513;42.662;23.350;2022-11-20T09:14:09;94304.16;;;17.55;56.30
16793;BME280;8513;42.662;23.350;2022-11-20T09:16:34;94312.81;;;17.44;57.66
16793;BME280;8513;42.662;23.350;2022-11-20T09:19:00;94325.72;;;17.34;58.19
16793;BME280;8513;42.662;23.350;2022-11-20T09:21:25;94315.94;;;17.21;58.65
16793;BME280;8513;42.662;23.350;2022-11-20T09:23:51;94325.81;;;17.07;61.63
16793;BME280;8513;42.662;23.350;2022-11-20T09:26:16;94315.09;;;17.40;60.68
16793;BME280;8513;42.662;23.350;2022-11-20T09:28:41;94325.53;;;17.35;58.29
16793;BME280;8513;42.662;23.350;2022-11-20T09:31:09;94301.56;;;17.42;57.66
16793;BME280;8513;42.662;23.350;2022-11-20T09:33:35;94303.97;;;17.50;57.91
16793;BME280;8513;42.662;23.350;2022-11-20T09:36:01;94310.59;;;17.34;58.85
16793;BME280;8513;42.662;23.350;2022-11-20T09:38:26;94292.41;;;17.38;60.34
16793;BME280;8513;42.662;23.350;2022-11-20T09:40:59;94282.78;;;17.37;60.39
16793;BME280;8513;42.662;23.350;2022-11-20T09:46:27;94267.09;;;17.67;63.02
16793;BME280;8513;42.662;23.350;2022-11-20T09:49:44;94280.72;;;17.39;66.24
16793;BME280;8513;42.662;23.350;2022-11-20T09:52:09;94268.72;;;17.30;66.08
16793;BME280;8513;42.662;23.350;2022-11-20T09:54:41;94264.53;;;17.54;65.73
16793;BME280;8513;42.662;23.350;2022-11-20T09:57:13;94255.06;;;17.58;66.99
16793;BME280;8513;42.662;23.350;2022-11-20T09:59:42;94250.78;;;17.95;64.64
16793;BME280;8513;42.662;23.350;2022-11-20T10:05:18;94257.84;;;18.33;63.42
16793;BME280;8513;42.662;23.350;2022-11-20T10:10:34;94264.13;;;18.14;61.09
16793;BME280;8513;42.662;23.350;2022-11-20T10:30:03;94228.28;;;18.41;59.29
16793;BME280;8513;42.662;23.350;2022-11-20T10:32:38;94222.03;;;18.54;61.39
16793;BME280;8513;42.662;23.350;2022-11-20T10:37:41;94234.13;;;18.32;59.67
16793;BME280;8513;42.662;23.350;2022-11-20T10:42:46;94246.50;;;17.94;60.50
16793;BME280;8513;42.662;23.350;2022-11-20T10:45:30;94260.16;;;17.98;59.69
16793;BME280;8513;42.662;23.350;2022-11-20T10:50:26;94241.78;;;17.58;60.67
16793;BME280;8513;42.662;23.350;2022-11-20T11:01:21;94265.69;;;17.19;64.92
16793;BME280;8513;42.662;23.350;2022-11-20T11:03:52;94261.63;;;17.17;65.17
16793;BME280;8513;42.662;23.350;2022-11-20T11:06:42;94290.22;;;17.15;65.97
16793;BME280;8513;42.662;23.350;2022-11-20T11:09:17;94289.44;;;17.08;65.77
16793;BME280;8513;42.662;23.350;2022-11-20T11:11:45;94308.44;;;17.05;65.93
16793;BME280;8513;42.662;23.350;2022-11-20T11:14:13;94318.69;;;17.01;66.95
16793;BME280;8513;42.662;23.350;2022-11-20T11:16:53;94343.63;;;16.34;72.30
16793;BME280;8513;42.662;23.350;2022-11-20T11:19:19;94339.25;;;15.79;60.92
16793;BME280;8513;42.662;23.350;2022-11-20T11:21:50;94339.19;;;15.66;61.31
16793;BME280;8513;42.662;23.350;2022-11-20T11:26:57;94331.72;;;15.70;62.29
16793;BME280;8513;42.662;23.350;2022-11-20T11:29:23;94304.75;;;15.59;61.64
16793;BME280;8513;42.662;23.350;2022-11-20T11:31:49;94301.06;;;15.54;62.48
16793;BME280;8513;42.662;23.350;2022-11-20T11:34:16;94313.69;;;15.52;61.60
16793;BME280;8513;42.662;23.350;2022-11-20T11:36:49;94307.56;;;15.51;61.98
16793;BME280;8513;42.662;23.350;2022-11-20T11:39:19;94302.06;;;15.53;61.84
16793;BME280;8513;42.662;23.350;2022-11-20T11:41:46;94293.88;;;15.41;61.46
16793;BME280;8513;42.662;23.350;2022-11-20T11:44:20;94290.81;;;15.37;60.41
16793;BME280;8513;42.662;23.350;2022-11-20T11:47:11;94284.44;;;15.25;60.58
16793;BME280;8513;42.662;23.350;2022-11-20T11:49:41;94280.53;;;15.14;60.71
16793;BME280;8513;42.662;23.350;2022-11-20T11:52:18;94282.38;;;15.14;60.19
16793;BME280;8513;42.662;23.350;2022-11-20T11:54:50;94284.03;;;15.21;61.29
16793;BME280;8513;42.662;23.350;2022-11-20T11:57:24;94290.78;;;15.24;61.38
16793;BME280;8513;42.662;23.350;2022-11-20T12:00:09;94282.16;;;15.15;61.25
16793;BME280;8513;42.662;23.350;2022-11-20T12:07:47;94250.16;;;15.04;59.51
16793;BME280;8513;42.662;23.350;2022-11-20T12:15:46;94239.66;;;14.75;60.27
16793;BME280;8513;42.662;23.350;2022-11-20T12:18:18;94256.13;;;14.71;61.76
16793;BME280;8513;42.662;23.350;2022-11-20T12:27:02;94274.00;;;14.62;61.55
16793;BME280;8513;42.662;23.350;2022-11-20T12:30:02;94290.44;;;14.58;61.55
16793;BME280;8513;42.662;23.350;2022-11-20T12:38:13;94258.59;;;14.51;63.25
16793;BME280;8513;42.662;23.350;2022-11-20T12:43:25;94195.03;;;14.66;61.46
16793;BME280;8513;42.662;23.350;2022-11-20T12:51:51;94183.34;;;14.95;63.24
16793;BME280;8513;42.662;23.350;2022-11-20T12:57:38;94186.28;;;14.72;67.35
16793;BME280;8513;42.662;23.350;2022-11-20T13:07:50;94191.59;;;14.72;68.51
16793;BME280;8513;42.662;23.350;2022-11-20T13:10:25;94193.41;;;14.71;68.09
16793;BME280;8513;42.662;23.350;2022-11-20T13:18:18;94241.69;;;14.45;66.82
16793;BME280;8513;42.662;23.350;2022-11-20T13:20:45;94233.44;;;14.55;64.78
16793;BME280;8513;42.662;23.350;2022-11-20T13:23:23;94206.16;;;14.26;66.42
16793;BME280;8513;42.662;23.350;2022-11-20T13:25:49;94166.56;;;13.98;69.95
16793;BME280;8513;42.662;23.350;2022-11-20T13:30:51;94271.63;;;14.18;70.15
16793;BME280;8513;42.662;23.350;2022-11-20T13:33:37;94279.00;;;14.29;68.38
16793;BME280;8513;42.662;23.350;2022-11-20T13:36:05;94229.34;;;14.24;68.63
16793;BME280;8513;42.662;23.350;2022-11-20T13:38:44;94190.53;;;14.31;70.98
16793;BME280;8513;42.662;23.350;2022-11-20T13:41:11;94260.34;;;14.37;69.53
16793;BME280;8513;42.662;23.350;2022-11-20T13:46:41;94221.31;;;14.11;69.69
16793;BME280;8513;42.662;23.350;2022-11-20T13:49:15;94246.44;;;14.00;71.32
16793;BME280;8513;42.662;23.350;2022-11-20T13:51:45;94258.16;;;14.12;71.17
16793;BME280;8513;42.662;23.350;2022-11-20T13:54:22;94257.03;;;14.28;69.35
16793;BME280;8513;42.662;23.350;2022-11-20T14:00:15;94273.56;;;14.37;68.44
16793;BME280;8513;42.662;23.350;2022-11-20T14:02:41;94267.63;;;14.28;68.85
16793;BME280;8513;42.662;23.350;2022-11-20T14:05:28;94264.69;;;14.17;70.30
16793;BME280;8513;42.662;23.350;2022-11-20T14:07:56;94272.00;;;14.15;71.92
16793;BME280;8513;42.662;23.350;2022-11-20T14:12:49;94249.72;;;13.74;73.11
16793;BME280;8513;42.662;23.350;2022-11-20T14:15:30;94244.44;;;13.53;74.73
16793;BME280;8513;42.662;23.350;2022-11-20T14:17:57;94243.34;;;13.90;73.14
16793;BME280;8513;42.662;23.350;2022-11-20T14:20:26;94244.28;;;14.10;73.03
16793;BME280;8513;42.662;23.350;2022-11-20T14:22:53;94250.69;;;14.23;71.42
16793;BME280;8513;42.662;23.350;2022-11-20T14:25:22;94248.25;;;14.21;70.39
16793;BME280;8513;42.662;23.350;2022-11-20T14:27:52;94239.66;;;14.19;70.62
16793;BME280;8513;42.662;23.350;2022-11-20T14:30:21;94233.19;;;14.22;71.71
16793;BME280;8513;42.662;23.350;2022-11-20T14:32:48;94247.72;;;14.04;72.70
16793;BME280;8513;42.662;23.350;2022-11-20T14:35:19;94249.19;;;14.13;71.34
16793;BME280;8513;42.662;23.350;2022-11-20T14:37:46;94252.31;;;14.24;71.50
16793;BME280;8513;42.662;23.350;2022-11-20T14:42:47;94257.03;;;14.00;72.85
16793;BME280;8513;42.662;23.350;2022-11-20T14:45:13;94258.84;;;14.00;73.98
16793;BME280;8513;42.662;23.350;2022-11-20T14:47:39;94263.22;;;13.86;74.35
16793;BME280;8513;42.662;23.350;2022-11-20T14:50:12;94262.19;;;13.87;74.59
16793;BME280;8513;42.662;23.350;2022-11-20T14:52:59;94266.09;;;13.91;74.44
16793;BME280;8513;42.662;23.350;2022-11-20T14:57:57;94258.56;;;13.88;74.77
16793;BME280;8513;42.662;23.350;2022-11-20T15:00:23;94259.41;;;13.95;74.47